Latest Weather Observations for Adele Island

IDW60801

Issued at 8:33 am WST Sunday 31 July 2016 (issued every 30 minutes, with the page automatically refreshed every 10 minutes)

About weather observations | Map of weather stations | Latest weather observations for WA | Other Formats
Station Details ID: 200735 Name: ADELE ISLAND Lat: -15.51 Lon: 123.16 Height: 4.6 m
Data from the previous 72 hours. | See also: Recent months at Adele Island
Date/Time
WST
Temp
°C
App
Temp
°C
Dew
Point
°C
Rel
Hum
%
Delta-T
°C
Wind Press
QNH
hPa
Press
MSL
hPa
Rain since
9am
mm
Dir  Spd
km/h
Gust
km/h
Spd
kts
Gust
kts
31/08:30am - - - - - SSE 17 20 9 11 1015.5 1015.4 -
31/08:00am - - - - - SSE 13 19 7 10 1015.1 1015.0 -
31/07:30am - - - - - SSE 13 17 7 9 1014.9 1014.8 -
31/07:00am - - - - - SSE 15 17 8 9 1014.7 1014.6 -
31/06:30am - - - - - SSE 15 17 8 9 1014.4 1014.3 -
31/06:00am - - - - - SSE 9 13 5 7 1014.3 1014.2 -
31/05:30am - - - - - E 9 9 5 5 1013.9 1013.8 -
31/05:00am - - - - - CALM 0 0 0 0 1013.7 1013.6 -
31/04:30am - - - - - CALM 0 0 0 0 1013.8 1013.7 -
31/04:00am - - - - - CALM 0 0 0 0 1013.6 1013.5 -
31/03:30am - - - - - N 6 6 3 3 1013.5 1013.4 -
31/03:00am - - - - - N 7 7 4 4 1013.5 1013.4 -
31/02:30am - - - - - NNW 7 9 4 5 1013.5 1013.4 -
31/02:00am - - - - - WNW 11 11 6 6 1013.4 1013.3 -
31/01:30am - - - - - W 11 13 6 7 1013.5 1013.4 -
31/01:00am - - - - - WSW 15 17 8 9 1013.7 1013.6 -
31/12:30am - - - - - WSW 13 15 7 8 1013.8 1013.7 -
31/12:00am - - - - - WSW 15 17 8 9 1013.9 1013.8 -
 
Date/Time
WST
Temp
°C
App
Temp
°C
Dew
Point
°C
Rel
Hum
%
Delta-T
°C
Wind Press
QNH
hPa
Press
MSL
hPa
Rain since
9am
mm
Dir  Spd
km/h
Gust
km/h
Spd
kts
Gust
kts
30/11:30pm - - - - - WSW 15 17 8 9 1014.1 1014.0 -
30/11:00pm - - - - - WNW 11 13 6 7 1014.1 1014.0 -
30/10:30pm - - - - - WNW 11 13 6 7 1014.0 1013.9 -
30/10:00pm - - - - - NNW 15 15 8 8 1014.0 1013.9 -
30/09:30pm - - - - - NNW 15 15 8 8 1014.1 1014.0 -
30/09:00pm - - - - - NNW 11 15 6 8 1014.2 1014.1 -
30/08:30pm - - - - - N 9 11 5 6 1014.4 1014.3 -
30/08:00pm - - - - - NNW 9 11 5 6 1014.2 1014.1 -
30/07:30pm - - - - - N 6 7 3 4 1013.9 1013.8 -
30/07:00pm - - - - - N 6 6 3 3 1013.8 1013.7 -
30/06:30pm - - - - - NNE 9 11 5 6 1013.5 1013.4 -
30/06:00pm - - - - - NNE 13 15 7 8 1013.2 1013.1 -
30/05:30pm - - - - - NE 13 15 7 8 1013.0 1012.9 -
30/05:00pm - - - - - NE 13 17 7 9 1012.8 1012.7 -
30/04:30pm - - - - - NE 17 20 9 11 1012.6 1012.5 -
30/04:00pm - - - - - NE 19 24 10 13 1012.4 1012.3 -
30/03:30pm - - - - - NE 15 20 8 11 1012.2 1012.1 -
30/03:00pm - - - - - NE 15 20 8 11 1012.3 1012.2 -
30/02:30pm - - - - - NE 17 22 9 12 1012.4 1012.3 -
30/02:00pm - - - - - NE 19 24 10 13 1012.5 1012.4 -
30/01:30pm - - - - - NE 17 22 9 12 1012.9 1012.8 -
30/01:00pm - - - - - NE 15 20 8 11 1013.3 1013.2 -
30/12:30pm - - - - - NE 17 20 9 11 1013.8 1013.7 -
30/12:00pm - - - - - NE 17 20 9 11 1014.1 1014.0 -
30/11:30am - - - - - NE 15 20 8 11 1014.4 1014.3 -
30/11:00am - - - - - NNE 15 19 8 10 1014.8 1014.7 -
30/10:30am - - - - - NE 13 19 7 10 1015.1 1015.0 -
30/10:00am - - - - - NE 11 15 6 8 1015.3 1015.2 -
30/09:30am - - - - - NNE 9 11 5 6 1015.3 1015.2 -
30/09:00am - - - - - ENE 9 11 5 6 1015.4 1015.3 -
30/08:30am - - - - - ESE 2 11 1 6 1015.4 1015.3 -
30/08:00am - - - - - NE 7 11 4 6 1015.1 1015.0 -
30/07:30am - - - - - E 9 11 5 6 1014.9 1014.8 -
30/07:00am - - - - - ESE 11 11 6 6 1014.6 1014.5 -
30/06:30am - - - - - SE 13 15 7 8 1014.5 1014.4 -
30/06:00am - - - - - SSW 13 17 7 9 1014.2 1014.1 -
30/05:30am - - - - - SSW 11 15 6 8 1013.9 1013.8 -
30/05:00am - - - - - SSW 11 11 6 6 1013.5 1013.4 -
30/04:30am - - - - - SSW 11 13 6 7 1013.5 1013.4 -
30/04:00am - - - - - SSW 11 13 6 7 1013.4 1013.3 -
30/03:30am - - - - - SSW 9 11 5 6 1013.5 1013.4 -
30/03:00am - - - - - SSW 11 13 6 7 1013.8 1013.7 -
30/02:30am - - - - - SSW 11 13 6 7 1013.9 1013.8 -
30/02:00am - - - - - SSW 9 9 5 5 1014.0 1013.9 -
30/01:30am - - - - - CALM 0 4 0 2 1014.4 1014.3 -
30/01:00am - - - - - CALM 0 2 0 1 1014.6 1014.5 -
30/12:30am - - - - - WSW 6 7 3 4 1014.6 1014.5 -
30/12:00am - - - - - WSW 7 9 4 5 1014.7 1014.6 -
 
Date/Time
WST
Temp
°C
App
Temp
°C
Dew
Point
°C
Rel
Hum
%
Delta-T
°C
Wind Press
QNH
hPa
Press
MSL
hPa
Rain since
9am
mm
Dir  Spd
km/h
Gust
km/h
Spd
kts
Gust
kts
29/11:30pm - - - - - WSW 9 11 5 6 1015.0 1014.9 -
29/11:00pm - - - - - WSW 7 9 4 5 1015.1 1015.0 -
29/10:30pm - - - - - WSW 7 9 4 5 1015.1 1015.0 -
29/10:00pm - - - - - SW 9 11 5 6 1015.4 1015.3 -
29/09:30pm - - - - - SW 9 9 5 5 1015.5 1015.4 -
29/09:00pm - - - - - N 7 9 4 5 1015.5 1015.4 -
29/08:30pm - - - - - CALM 0 0 0 0 1015.5 1015.4 -
29/08:00pm - - - - - N 2 6 1 3 1015.4 1015.3 -
29/07:30pm - - - - - N 7 9 4 5 1015.0 1014.9 -
29/07:00pm - - - - - N 7 9 4 5 1014.8 1014.7 -
29/06:30pm - - - - - NNE 7 11 4 6 1014.3 1014.2 -
29/06:00pm - - - - - NNE 7 11 4 6 1013.9 1013.8 -
29/05:30pm - - - - - NNE 13 17 7 9 1013.6 1013.5 -
29/05:00pm - - - - - NE 9 11 5 6 1013.4 1013.3 -
29/04:30pm - - - - - ENE 9 13 5 7 1013.5 1013.4 -
29/04:00pm - - - - - E 11 17 6 9 1013.4 1013.3 -
29/03:30pm - - - - - E 15 19 8 10 1013.3 1013.2 -
29/03:00pm - - - - - ENE 15 20 8 11 1013.3 1013.2 -
29/02:30pm - - - - - NE 17 20 9 11 1013.3 1013.2 -
29/02:00pm - - - - - ENE 20 24 11 13 1013.4 1013.3 -
29/01:30pm - - - - - ENE 20 28 11 15 1013.8 1013.7 -
29/01:00pm - - - - - ENE 22 30 12 16 1013.9 1013.8 -
29/12:30pm - - - - - E 24 30 13 16 1014.2 1014.1 -
29/12:00pm - - - - - E 26 33 14 18 1014.5 1014.4 -
29/11:30am - - - - - E 28 33 15 18 1015.0 1014.9 -
29/11:00am - - - - - E 24 28 13 15 1015.2 1015.1 -
29/10:30am - - - - - E 20 24 11 13 1015.6 1015.5 -
29/10:00am - - - - - ENE 17 20 9 11 1015.9 1015.8 -
29/09:30am - - - - - ENE 15 20 8 11 1016.1 1016.0 -
29/09:00am - - - - - NE 13 15 7 8 1016.2 1016.1 -
29/08:30am - - - - - NE 11 15 6 8 1016.2 1016.1 -
29/08:00am - - - - - ENE 13 15 7 8 1015.9 1015.8 -
29/07:30am - - - - - SSE 4 7 2 4 1015.8 1015.7 -
29/07:00am - - - - - CALM 0 6 0 3 1015.7 1015.6 -
29/06:30am - - - - - CALM 0 4 0 2 1015.5 1015.4 -
29/06:00am - - - - - CALM 0 4 0 2 1015.3 1015.2 -
29/05:30am - - - - - S 2 6 1 3 1015.1 1015.0 -
29/05:00am - - - - - S 9 9 5 5 1014.9 1014.8 -
29/04:30am - - - - - S 11 15 6 8 1014.9 1014.8 -
29/04:00am - - - - - S 11 13 6 7 1014.7 1014.6 -
29/03:30am - - - - - S 9 11 5 6 1014.8 1014.7 -
29/03:00am - - - - - SSW 9 11 5 6 1014.8 1014.7 -
29/02:30am - - - - - SSW 13 17 7 9 1014.7 1014.6 -
29/02:00am - - - - - SW 17 19 9 10 1014.8 1014.7 -
29/01:30am - - - - - SW 13 15 7 8 1015.3 1015.2 -
29/01:00am - - - - - SW 13 15 7 8 1015.5 1015.4 -
29/12:30am - - - - - SW 11 13 6 7 1015.6 1015.5 -
29/12:00am - - - - - SW 13 15 7 8 1015.7 1015.6 -
 
Date/Time
WST
Temp
°C
App
Temp
°C
Dew
Point
°C
Rel
Hum
%
Delta-T
°C
Wind Press
QNH
hPa
Press
MSL
hPa
Rain since
9am
mm
Dir  Spd
km/h
Gust
km/h
Spd
kts
Gust
kts
28/11:30pm - - - - - WSW 9 11 5 6 1015.7 1015.6 -
28/11:00pm - - - - - WSW 11 13 6 7 1015.5 1015.4 -
28/10:30pm - - - - - WSW 11 11 6 6 1015.7 1015.6 -
28/10:00pm - - - - - SW 7 9 4 5 1015.9 1015.8 -
28/09:30pm - - - - - SW 7 9 4 5 1016.1 1016.0 -
28/09:00pm - - - - - SSW 7 9 4 5 1016.1 1016.0 -
28/08:30pm - - - - - CALM 0 0 0 0 1016.0 1015.9 -
28/08:00pm - - - - - SSW 2 6 1 3 1015.8 1015.7 -
28/07:30pm - - - - - ESE 6 6 3 3 1015.6 1015.5 -
28/07:00pm - - - - - ESE 4 6 2 3 1015.4 1015.3 -
28/06:30pm - - - - - ESE 6 7 3 4 1015.1 1015.0 -
28/06:00pm - - - - - E 6 7 3 4 1014.9 1014.8 -
28/05:30pm - - - - - ESE 7 9 4 5 1014.8 1014.7 -
28/05:00pm - - - - - ESE 9 13 5 7 1014.7 1014.6 -
28/04:30pm - - - - - ESE 11 13 6 7 1014.6 1014.5 -
28/04:00pm - - - - - E 13 17 7 9 1014.4 1014.3 -
28/03:30pm - - - - - E 13 17 7 9 1014.2 1014.1 -
28/03:00pm - - - - - E 15 19 8 10 1014.3 1014.2 -
28/02:30pm - - - - - ESE 17 20 9 11 1014.3 1014.2 -
28/02:00pm - - - - - ESE 17 20 9 11 1014.5 1014.4 -
28/01:30pm - - - - - ESE 19 22 10 12 1014.8 1014.7 -
28/01:00pm - - - - - E 19 28 10 15 1015.1 1015.0 -
28/12:30pm - - - - - E 22 28 12 15 1015.5 1015.4 -
28/12:00pm - - - - - E 24 32 13 17 1016.0 1015.9 -
28/11:30am - - - - - E 28 33 15 18 1016.3 1016.2 -
28/11:00am - - - - - E 28 35 15 19 1016.8 1016.7 -
28/10:30am - - - - - E 30 37 16 20 1017.0 1016.9 -
28/10:00am - - - - - E 30 35 16 19 1017.2 1017.1 -
28/09:30am - - - - - E 28 35 15 19 1017.4 1017.3 -
28/09:00am - - - - - E 20 26 11 14 1017.3 1017.2 -

Other Formats:

Comma delimited format used in spreadsheet applications
http://www.bom.gov.au/fwo/IDW60801/IDW60801.94210.axf

JavaScript Object Notation format (JSON) in row-major order
http://www.bom.gov.au/fwo/IDW60801/IDW60801.94210.json